createdAt,value
2023-11-18T00:01:35.961Z,3.13
2023-11-18T00:04:04.152Z,3.40
2023-11-18T00:06:32.245Z,3.85
2023-11-18T00:09:00.687Z,3.08
2023-11-18T00:11:28.917Z,3.38
2023-11-18T00:13:57.105Z,2.70
2023-11-18T00:16:25.374Z,2.58
2023-11-18T00:18:54.680Z,3.00
2023-11-18T00:21:26.081Z,3.42
2023-11-18T00:23:54.349Z,3.10
2023-11-18T00:26:22.833Z,2.40
2023-11-18T00:28:58.498Z,2.72
2023-11-18T00:31:26.672Z,2.78
2023-11-18T00:33:54.997Z,2.75
2023-11-18T00:36:23.585Z,2.53
2023-11-18T00:38:51.841Z,2.63
2023-11-18T00:41:20.023Z,2.85
2023-11-18T00:43:48.286Z,2.60
2023-11-18T00:46:16.762Z,2.55
2023-11-18T00:48:44.857Z,2.95
2023-11-18T00:51:13.553Z,2.78
2023-11-18T00:53:41.715Z,2.78
2023-11-18T00:56:19.387Z,2.10
2023-11-18T00:58:47.587Z,2.75
2023-11-18T01:01:19.041Z,2.60
2023-11-18T01:03:47.690Z,2.25
2023-11-18T01:06:18.596Z,1.92
2023-11-18T01:08:47.471Z,2.35
2023-11-18T01:11:23.442Z,2.40
2023-11-18T01:13:52.006Z,2.97
2023-11-18T01:16:21.040Z,2.60
2023-11-18T01:18:49.749Z,2.30
2023-11-18T01:21:18.654Z,2.20
2023-11-18T01:23:46.887Z,2.50
2023-11-18T01:26:16.191Z,2.28
2023-11-18T01:28:46.156Z,2.47
2023-11-18T01:31:16.615Z,2.55
2023-11-18T01:33:46.392Z,2.10
2023-11-18T01:36:14.579Z,2.33
2023-11-18T01:38:42.779Z,3.20
2023-11-18T01:41:11.021Z,2.22
2023-11-18T01:43:41.186Z,2.30
2023-11-18T01:46:11.719Z,1.95
2023-11-18T01:48:41.120Z,1.90
2023-11-18T01:51:13.586Z,2.00
2023-11-18T01:53:43.572Z,2.00
2023-11-18T01:56:12.454Z,1.77
2023-11-18T01:58:42.084Z,1.60
2023-11-18T02:01:11.371Z,1.60
2023-11-18T02:03:41.898Z,2.15
2023-11-18T02:06:11.815Z,2.10
2023-11-18T02:08:40.039Z,1.85
2023-11-18T02:11:51.065Z,2.10
2023-11-18T02:14:21.385Z,1.77
2023-11-18T02:16:54.503Z,2.03
2023-11-18T02:21:55.567Z,2.10
2023-11-18T02:24:32.316Z,2.30
2023-11-18T02:27:01.614Z,2.45
2023-11-18T02:29:36.949Z,1.95
2023-11-18T02:32:16.787Z,2.13
2023-11-18T02:35:14.407Z,1.98
2023-11-18T02:37:48.401Z,2.10
2023-11-18T02:40:31.771Z,1.80
2023-11-18T02:45:30.080Z,1.98
2023-11-18T02:47:58.708Z,1.95
2023-11-18T02:50:28.575Z,2.05
2023-11-18T02:52:57.892Z,1.70
2023-11-18T02:55:27.172Z,1.85
2023-11-18T02:57:55.440Z,2.22
2023-11-18T03:00:23.746Z,2.05
2023-11-18T03:02:53.734Z,1.67
2023-11-18T03:05:22.769Z,1.92
2023-11-18T03:07:52.977Z,1.65
2023-11-18T03:10:24.121Z,1.70
2023-11-18T03:12:54.164Z,1.80
2023-11-18T03:15:24.880Z,2.03
2023-11-18T03:17:53.985Z,2.00
2023-11-18T03:20:24.750Z,2.17
2023-11-18T03:22:54.148Z,2.60
2023-11-18T03:25:23.383Z,2.45
2023-11-18T03:27:51.955Z,1.95
2023-11-18T03:30:20.273Z,1.80
2023-11-18T03:32:48.581Z,2.08
2023-11-18T03:35:16.897Z,1.67
2023-11-18T03:37:45.366Z,2.10
2023-11-18T03:40:15.504Z,2.00
2023-11-18T03:42:44.412Z,1.92
2023-11-18T03:45:12.703Z,2.00
2023-11-18T03:47:41.047Z,1.70
2023-11-18T03:50:10.219Z,2.67
2023-11-18T03:52:41.621Z,1.90
2023-11-18T03:55:10.761Z,1.90
2023-11-18T03:57:38.936Z,1.90
2023-11-18T04:00:07.789Z,2.17
2023-11-18T04:02:41.263Z,1.92
2023-11-18T04:05:10.041Z,2.33
2023-11-18T04:07:38.247Z,2.13
2023-11-18T04:10:07.912Z,2.22
2023-11-18T04:12:36.139Z,2.80
2023-11-18T04:15:05.832Z,2.55
2023-11-18T04:17:35.514Z,2.47
2023-11-18T04:20:06.451Z,2.50
2023-11-18T04:22:34.650Z,2.50
2023-11-18T04:25:02.752Z,2.20
2023-11-18T04:27:31.004Z,2.08
2023-11-18T04:29:59.131Z,1.60
2023-11-18T04:32:28.253Z,2.08
2023-11-18T04:34:56.498Z,1.58
2023-11-18T04:37:27.678Z,1.70
2023-11-18T04:39:56.455Z,1.67
2023-11-18T04:42:24.560Z,1.45
2023-11-18T04:44:53.224Z,1.50
2023-11-18T04:47:21.357Z,1.70
2023-11-18T04:49:49.815Z,1.90
2023-11-18T04:52:18.008Z,1.48
2023-11-18T04:54:49.216Z,1.70
2023-11-18T04:57:18.154Z,1.60
2023-11-18T04:59:46.347Z,1.40
2023-11-18T05:02:14.600Z,2.00
2023-11-18T05:04:42.826Z,1.42
2023-11-18T05:07:10.952Z,2.25
2023-11-18T05:09:39.180Z,1.90
2023-11-18T05:12:08.055Z,1.95
2023-11-18T05:14:36.838Z,2.10
2023-11-18T05:17:07.876Z,2.03
2023-11-18T05:19:36.209Z,2.50
2023-11-18T05:22:05.773Z,2.05
2023-11-18T05:24:33.950Z,2.10
2023-11-18T05:27:02.891Z,2.08
2023-11-18T05:29:31.624Z,2.50
2023-11-18T05:31:59.789Z,2.13
2023-11-18T05:34:30.411Z,1.90
2023-11-18T05:37:00.432Z,2.40
2023-11-18T05:39:31.980Z,2.20
2023-11-18T05:42:00.795Z,2.75
2023-11-18T05:44:31.957Z,2.40
2023-11-18T05:47:00.477Z,2.30
2023-11-18T05:49:28.693Z,2.60
2023-11-18T05:51:57.445Z,2.53
2023-11-18T05:54:25.682Z,3.00
2023-11-18T05:57:00.042Z,3.20
2023-11-18T05:59:28.696Z,3.08
2023-11-18T06:01:58.164Z,2.92
2023-11-18T06:04:29.149Z,3.08
2023-11-18T06:06:57.893Z,2.63
2023-11-18T06:09:26.856Z,2.20
2023-11-18T06:11:55.978Z,2.92
2023-11-18T06:14:24.042Z,2.70
2023-11-18T06:16:53.208Z,2.35
2023-11-18T06:19:22.106Z,2.97
2023-11-18T06:21:50.986Z,2.17
2023-11-18T06:24:19.979Z,2.22
2023-11-18T06:26:50.518Z,2.20
2023-11-18T06:29:18.665Z,2.15
2023-11-18T06:31:47.179Z,2.22
2023-11-18T06:34:15.306Z,1.85
2023-11-18T06:36:43.392Z,1.90
2023-11-18T06:39:14.170Z,2.22
2023-11-18T06:41:49.607Z,2.00
2023-11-18T06:44:25.060Z,1.73
2023-11-18T06:46:53.425Z,1.85
2023-11-18T06:49:21.714Z,1.55
2023-11-18T06:51:49.809Z,2.17
2023-11-18T06:54:18.499Z,1.50
2023-11-18T06:56:46.863Z,1.83
2023-11-18T06:59:16.755Z,1.92
2023-11-18T07:01:46.514Z,1.67
2023-11-18T07:04:16.354Z,2.05
2023-11-18T07:06:45.944Z,2.00
2023-11-18T07:09:18.256Z,2.30
2023-11-18T07:11:48.189Z,3.73
2023-11-18T07:14:17.180Z,3.00
2023-11-18T07:16:46.092Z,2.90
2023-11-18T07:19:24.662Z,1.92
2023-11-18T07:21:53.667Z,1.73
2023-11-18T07:24:22.388Z,4.53
2023-11-18T07:26:52.350Z,4.05
2023-11-18T07:29:20.791Z,4.40
2023-11-18T07:31:50.392Z,4.05
2023-11-18T07:34:18.663Z,3.65
2023-11-18T07:36:48.491Z,3.58
2023-11-18T07:39:17.407Z,4.05
2023-11-18T07:41:45.808Z,3.55
2023-11-18T07:44:14.362Z,3.95
2023-11-18T07:46:44.065Z,4.53
2023-11-18T07:49:12.871Z,3.47
2023-11-18T07:51:43.205Z,3.17
2023-11-18T07:54:11.581Z,3.25
2023-11-18T07:56:42.140Z,3.67
2023-11-18T07:59:10.336Z,3.50
2023-11-18T08:01:41.738Z,3.80
2023-11-18T08:04:09.958Z,3.92
2023-11-18T08:06:38.259Z,3.88
2023-11-18T08:09:11.577Z,4.38
2023-11-18T08:14:10.489Z,4.65
2023-11-18T08:16:38.855Z,4.07
2023-11-18T08:19:09.231Z,6.00
2023-11-18T08:21:39.107Z,5.10
2023-11-18T08:24:09.352Z,4.32
2023-11-18T08:26:39.960Z,4.10
2023-11-18T08:29:09.340Z,4.47
2023-11-18T08:31:40.773Z,4.40
2023-11-18T08:34:11.534Z,4.93
2023-11-18T08:36:39.723Z,4.70
2023-11-18T08:39:12.477Z,4.43
2023-11-18T08:41:40.875Z,4.07
2023-11-18T08:44:22.001Z,3.47
2023-11-18T08:49:24.759Z,3.22
2023-11-18T08:51:57.848Z,3.45
2023-11-18T08:54:39.097Z,3.50
2023-11-18T08:57:24.470Z,4.88
2023-11-18T08:59:53.271Z,3.70
2023-11-18T09:02:24.731Z,15.60
2023-11-18T09:04:56.587Z,17.15
2023-11-18T09:07:25.518Z,11.80
2023-11-18T09:09:53.713Z,8.82
2023-11-18T09:12:21.896Z,6.95
2023-11-18T09:14:53.012Z,7.85
2023-11-18T09:17:23.769Z,11.70
2023-11-18T09:19:53.951Z,12.68
2023-11-18T09:22:22.268Z,11.32
2023-11-18T09:24:51.939Z,5.47
2023-11-18T09:27:20.032Z,3.60
2023-11-18T09:29:48.515Z,3.10
2023-11-18T09:32:16.704Z,2.97
2023-11-18T09:34:46.783Z,3.10
2023-11-18T09:37:16.225Z,2.85
2023-11-18T09:39:46.833Z,2.97
2023-11-18T09:42:20.064Z,2.38
2023-11-18T09:44:49.473Z,3.70
2023-11-18T09:47:25.832Z,3.58
2023-11-18T09:49:58.418Z,5.13
2023-11-18T09:52:32.918Z,3.50
2023-11-18T09:55:05.699Z,3.00
2023-11-18T09:57:42.376Z,3.70
2023-11-18T10:00:24.459Z,3.70
2023-11-18T10:02:54.142Z,4.38
2023-11-18T10:05:24.267Z,4.47
2023-11-18T10:07:52.768Z,4.85
2023-11-18T10:10:25.980Z,4.82
2023-11-18T10:12:58.888Z,6.28
2023-11-18T10:15:28.518Z,6.32
2023-11-18T10:18:00.992Z,7.60
2023-11-18T10:20:46.952Z,7.60
2023-11-18T10:23:22.684Z,7.75
2023-11-18T10:25:54.164Z,6.70
2023-11-18T10:28:29.385Z,6.18
2023-11-18T10:31:16.524Z,6.22
2023-11-18T10:33:45.023Z,6.47
2023-11-18T10:36:24.244Z,6.80
2023-11-18T10:38:56.778Z,5.68
2023-11-18T10:41:25.434Z,5.45
2023-11-18T10:44:15.530Z,5.38
2023-11-18T10:46:54.350Z,4.65
2023-11-18T10:49:23.474Z,5.40
2023-11-18T10:51:53.122Z,7.15
2023-11-18T10:54:22.230Z,5.22
2023-11-18T10:56:51.157Z,5.70
2023-11-18T10:59:19.958Z,4.90
2023-11-18T11:01:50.722Z,5.05
2023-11-18T11:04:23.607Z,6.07
2023-11-18T11:06:57.369Z,6.13
2023-11-18T11:09:29.925Z,7.15
2023-11-18T11:12:05.587Z,7.63
2023-11-18T11:14:44.648Z,8.75
2023-11-18T11:17:26.472Z,9.00
2023-11-18T11:20:18.828Z,10.05
2023-11-18T11:23:21.257Z,10.50
2023-11-18T11:26:01.534Z,9.13
2023-11-18T11:28:45.103Z,9.10
2023-11-18T11:31:39.338Z,9.63
2023-11-18T11:34:17.621Z,7.95
2023-11-18T11:36:52.359Z,7.25
2023-11-18T11:39:27.227Z,6.20
2023-11-18T11:41:57.724Z,8.30
2023-11-18T11:44:31.223Z,8.07
2023-11-18T11:47:02.110Z,7.15
2023-11-18T11:50:12.982Z,5.78
2023-11-18T11:53:00.187Z,6.15
2023-11-18T11:56:07.619Z,5.75
2023-11-18T11:58:40.515Z,5.70
2023-11-18T12:01:38.691Z,5.95
2023-11-18T12:04:11.800Z,5.93
2023-11-18T12:06:45.415Z,6.25
2023-11-18T12:09:21.090Z,6.25
2023-11-18T12:11:50.336Z,7.22
2023-11-18T12:14:21.764Z,6.38
2023-11-18T12:17:10.165Z,7.20
2023-11-18T12:19:49.301Z,7.22
2023-11-18T12:22:42.207Z,6.43
2023-11-18T12:25:16.532Z,7.30
2023-11-18T12:27:53.628Z,7.40
2023-11-18T12:30:28.336Z,6.55
2023-11-18T12:33:10.143Z,7.50
2023-11-18T12:35:52.400Z,6.60
2023-11-18T12:38:58.651Z,7.63
2023-11-18T12:41:39.526Z,6.60
2023-11-18T12:44:19.486Z,6.60
2023-11-18T12:47:15.774Z,7.03
2023-11-18T12:49:55.491Z,6.60
2023-11-18T12:52:24.579Z,7.28
2023-11-18T12:54:59.935Z,6.75
2023-11-18T12:57:32.444Z,7.40
2023-11-18T13:00:05.096Z,7.20
2023-11-18T13:02:34.184Z,7.37
2023-11-18T13:05:10.345Z,6.95
2023-11-18T13:07:39.118Z,6.15
2023-11-18T13:10:08.860Z,5.95
2023-11-18T13:12:37.622Z,6.57
2023-11-18T13:15:09.360Z,6.60
2023-11-18T13:17:37.631Z,6.72
2023-11-18T13:20:16.115Z,5.03
2023-11-18T13:22:48.226Z,5.00
2023-11-18T13:25:18.576Z,4.85
2023-11-18T13:27:47.645Z,5.20
2023-11-18T13:30:18.437Z,5.20
2023-11-18T13:32:47.413Z,5.13
2023-11-18T13:35:20.124Z,5.35
2023-11-18T13:37:50.327Z,5.45
2023-11-18T13:40:21.912Z,8.82
2023-11-18T13:43:01.814Z,5.90
2023-11-18T13:45:36.387Z,4.55
2023-11-18T13:48:09.773Z,5.95
2023-11-18T13:50:41.359Z,5.55
2023-11-18T13:53:09.895Z,5.93
2023-11-18T13:55:39.840Z,2.17
2023-11-18T13:58:08.452Z,1.30
2023-11-18T14:00:37.066Z,1.08
2023-11-18T14:03:07.779Z,0.98
2023-11-18T14:05:36.928Z,1.33
2023-11-18T14:08:10.853Z,0.70
2023-11-18T14:10:41.932Z,0.70
2023-11-18T14:13:14.143Z,0.77
2023-11-18T14:15:45.271Z,0.80
2023-11-18T14:18:15.406Z,1.25
2023-11-18T14:20:43.930Z,1.40
2023-11-18T14:23:12.483Z,1.20
2023-11-18T14:25:40.920Z,1.70
2023-11-18T14:28:12.218Z,1.55
2023-11-18T14:30:43.095Z,1.42
2023-11-18T14:33:11.280Z,1.88
2023-11-18T14:35:41.355Z,1.63
2023-11-18T14:38:09.813Z,1.65
2023-11-18T14:40:39.190Z,1.98
2023-11-18T14:43:08.332Z,1.60
2023-11-18T14:45:37.463Z,1.50
2023-11-18T14:48:06.493Z,1.58
2023-11-18T14:50:36.233Z,1.45
2023-11-18T14:53:05.050Z,1.20
2023-11-18T14:55:38.851Z,1.48
2023-11-18T14:58:08.132Z,1.73
2023-11-18T15:00:39.002Z,1.17
2023-11-18T15:03:07.703Z,1.55
2023-11-18T15:05:36.589Z,1.73
2023-11-18T15:08:10.383Z,1.65
2023-11-18T15:10:38.551Z,1.63
2023-11-18T15:13:06.699Z,1.40
2023-11-18T15:15:37.986Z,1.80
2023-11-18T15:18:09.976Z,1.80
2023-11-18T15:20:39.950Z,1.73
2023-11-18T15:23:08.601Z,2.20
2023-11-18T15:25:37.087Z,3.60
2023-11-18T15:28:06.512Z,4.47
2023-11-18T15:30:34.649Z,4.30
2023-11-18T15:33:03.184Z,4.75
2023-11-18T15:35:31.761Z,5.80
2023-11-18T15:37:59.967Z,4.68
2023-11-18T15:40:29.453Z,4.35
2023-11-18T15:42:57.847Z,4.10
2023-11-18T15:45:25.953Z,3.00
2023-11-18T15:47:54.281Z,2.97
2023-11-18T15:50:22.745Z,3.05
2023-11-18T15:52:55.037Z,3.60
2023-11-18T15:55:25.467Z,3.90
2023-11-18T15:57:54.821Z,5.63
2023-11-18T16:00:28.454Z,5.40
2023-11-18T16:03:02.133Z,4.78
2023-11-18T16:05:35.900Z,4.03
2023-11-18T16:08:08.272Z,4.43
2023-11-18T16:10:38.706Z,4.32
2023-11-18T16:13:07.723Z,4.32
2023-11-18T16:15:37.005Z,4.55
2023-11-18T16:18:05.798Z,5.35
2023-11-18T16:20:34.796Z,7.28
2023-11-18T16:23:07.110Z,6.82
2023-11-18T16:25:36.787Z,6.10
2023-11-18T16:28:10.420Z,9.50
2023-11-18T16:30:39.087Z,9.10
2023-11-18T16:33:08.924Z,9.30
2023-11-18T16:35:37.619Z,8.88
2023-11-18T16:38:06.709Z,7.70
2023-11-18T16:40:35.664Z,8.45
2023-11-18T16:43:04.552Z,8.23
2023-11-18T16:45:33.098Z,9.82
2023-11-18T16:48:01.414Z,10.00
2023-11-18T16:50:30.729Z,9.15
2023-11-18T16:53:00.954Z,8.13
2023-11-18T16:55:32.835Z,7.80
2023-11-18T17:00:33.511Z,6.90
2023-11-18T17:03:01.835Z,8.07
2023-11-18T17:05:31.231Z,9.30
2023-11-18T17:08:01.900Z,10.70
2023-11-18T17:13:04.287Z,8.27
2023-11-18T17:15:32.742Z,7.68
2023-11-18T17:18:04.910Z,7.30
2023-11-18T17:20:33.815Z,6.47
2023-11-18T17:23:03.726Z,5.47
2023-11-18T17:25:32.317Z,5.70
2023-11-18T17:28:03.514Z,5.93
2023-11-18T17:30:36.180Z,6.15
2023-11-18T17:33:05.134Z,6.18
2023-11-18T17:35:33.352Z,6.22
2023-11-18T17:38:05.989Z,5.82
2023-11-18T17:40:34.351Z,6.80
2023-11-18T17:43:02.531Z,5.28
2023-11-18T17:45:30.737Z,5.68
2023-11-18T17:47:59.173Z,6.35
2023-11-18T17:50:27.959Z,7.13
2023-11-18T17:52:58.379Z,5.60
2023-11-18T17:55:28.710Z,5.93
2023-11-18T17:58:00.728Z,6.45
2023-11-18T18:00:28.943Z,6.90
2023-11-18T18:02:57.041Z,7.22
2023-11-18T18:05:25.358Z,7.43
2023-11-18T18:07:53.907Z,8.57
2023-11-18T18:10:25.716Z,8.45
2023-11-18T18:12:55.352Z,8.82
2023-11-18T18:15:27.238Z,8.95
2023-11-18T18:17:55.457Z,8.32
2023-11-18T18:20:23.795Z,8.45
2023-11-18T18:22:51.950Z,8.50
2023-11-18T18:25:20.195Z,8.63
2023-11-18T18:27:51.313Z,7.78
2023-11-18T18:30:19.903Z,6.85
2023-11-18T18:32:50.094Z,7.70
2023-11-18T18:35:18.682Z,7.70
2023-11-18T18:37:46.849Z,7.97
2023-11-18T18:40:15.833Z,8.88
2023-11-18T18:42:44.103Z,9.82
2023-11-18T18:45:12.864Z,9.48
2023-11-18T18:47:41.115Z,9.57
2023-11-18T18:50:10.006Z,9.63
2023-11-18T18:52:38.423Z,9.88
2023-11-18T18:55:10.303Z,12.02
2023-11-18T18:57:38.580Z,13.75
2023-11-18T19:00:07.968Z,13.82
2023-11-18T19:02:36.185Z,13.05
2023-11-18T19:05:04.703Z,14.52
2023-11-18T19:07:33.367Z,14.10
2023-11-18T19:10:01.886Z,12.70
2023-11-18T19:12:30.211Z,11.85
2023-11-18T19:14:58.364Z,12.48
2023-11-18T19:17:26.804Z,11.23
2023-11-18T19:19:55.136Z,13.25
2023-11-18T19:22:26.224Z,13.02
2023-11-18T19:24:54.459Z,11.18
2023-11-18T19:27:22.561Z,10.85
2023-11-18T19:29:50.658Z,11.02
2023-11-18T19:32:18.810Z,11.02
2023-11-18T19:34:46.906Z,10.48
2023-11-18T19:37:15.021Z,10.55
2023-11-18T19:39:44.388Z,10.93
2023-11-18T19:42:13.047Z,9.95
2023-11-18T19:44:41.401Z,9.25
2023-11-18T19:47:09.601Z,8.48
2023-11-18T19:49:38.528Z,8.75
2023-11-18T19:52:08.232Z,8.80
2023-11-18T19:54:36.827Z,7.05
2023-11-18T19:57:05.123Z,7.97
2023-11-18T19:59:33.855Z,8.30
2023-11-18T20:02:02.454Z,7.50
2023-11-18T20:04:34.449Z,7.20
2023-11-18T20:07:04.014Z,7.15
2023-11-18T20:09:35.259Z,8.07
2023-11-18T20:12:05.178Z,7.20
2023-11-18T20:14:34.473Z,7.75
2023-11-18T20:17:02.890Z,7.03
2023-11-18T20:19:33.676Z,8.25
2023-11-18T20:22:02.043Z,7.90
2023-11-18T20:24:30.414Z,8.25
2023-11-18T20:26:59.105Z,7.53
2023-11-18T20:29:27.753Z,9.90
2023-11-18T20:31:56.286Z,9.57
2023-11-18T20:34:24.361Z,10.45
2023-11-18T20:36:52.513Z,13.07
2023-11-18T20:39:20.632Z,11.60
2023-11-18T20:41:49.841Z,13.25
2023-11-18T20:44:21.722Z,12.05
2023-11-18T20:46:51.147Z,11.40
2023-11-18T20:49:19.338Z,10.93
2023-11-18T20:51:47.437Z,11.07
2023-11-18T20:54:15.540Z,11.25
2023-11-18T20:56:43.737Z,10.65
2023-11-18T20:59:11.940Z,9.43
2023-11-18T21:01:40.071Z,8.90
2023-11-18T21:04:11.366Z,8.40
2023-11-18T21:06:39.631Z,9.57
2023-11-18T21:09:08.216Z,7.93
2023-11-18T21:11:36.382Z,7.78
2023-11-18T21:14:05.382Z,7.43
2023-11-18T21:16:33.608Z,8.02
2023-11-18T21:19:04.305Z,7.75
2023-11-18T21:21:32.451Z,8.40
2023-11-18T21:24:04.272Z,9.18
2023-11-18T21:26:32.677Z,9.18
2023-11-18T21:29:00.897Z,8.77
2023-11-18T21:31:31.974Z,9.60
2023-11-18T21:34:05.563Z,9.52
2023-11-18T21:36:33.736Z,9.00
2023-11-18T21:39:01.852Z,8.55
2023-11-18T21:41:30.003Z,9.25
2023-11-18T21:43:59.229Z,9.57
2023-11-18T21:46:28.357Z,8.52
2023-11-18T21:48:56.571Z,8.93
2023-11-18T21:51:25.446Z,8.65
2023-11-18T21:53:53.639Z,9.07
2023-11-18T21:56:22.787Z,9.75
2023-11-18T21:58:51.075Z,10.57
2023-11-18T22:01:20.091Z,9.70
2023-11-18T22:03:49.769Z,10.05
2023-11-18T22:06:17.938Z,9.73
2023-11-18T22:08:46.130Z,9.75
2023-11-18T22:11:17.189Z,8.70
2023-11-18T22:13:49.281Z,8.88
2023-11-18T22:16:17.435Z,8.77
2023-11-18T22:18:50.496Z,10.20
2023-11-18T22:21:18.767Z,10.25
2023-11-18T22:23:47.103Z,9.75
2023-11-18T22:26:15.251Z,11.10
2023-11-18T22:28:43.335Z,10.98
2023-11-18T22:31:11.444Z,12.23
2023-11-18T22:33:39.620Z,10.57
2023-11-18T22:36:08.797Z,10.65
2023-11-18T22:38:38.930Z,11.18
2023-11-18T22:41:10.485Z,9.50
2023-11-18T22:43:38.932Z,9.30
2023-11-18T22:46:11.997Z,10.50
2023-11-18T22:51:12.231Z,9.50
2023-11-18T22:53:43.785Z,9.88
2023-11-18T22:56:12.265Z,10.20
2023-11-18T22:58:40.694Z,9.43
2023-11-18T23:01:12.443Z,10.73
2023-11-18T23:03:40.628Z,14.55
2023-11-18T23:06:20.751Z,17.42
2023-11-18T23:08:49.784Z,14.50
2023-11-18T23:11:18.786Z,14.93
2023-11-18T23:13:47.817Z,14.25
2023-11-18T23:16:20.606Z,13.82
2023-11-18T23:18:51.064Z,14.40
2023-11-18T23:21:19.267Z,12.80
2023-11-18T23:23:48.727Z,12.48
2023-11-18T23:26:16.846Z,14.13
2023-11-18T23:28:45.007Z,14.32
2023-11-18T23:31:13.741Z,13.93
2023-11-18T23:33:42.880Z,13.18
2023-11-18T23:36:11.443Z,12.60
2023-11-18T23:38:39.994Z,12.73
2023-11-18T23:41:08.251Z,11.38
2023-11-18T23:43:37.314Z,12.65
2023-11-18T23:46:06.903Z,11.75
2023-11-18T23:48:35.312Z,11.90
2023-11-18T23:51:04.268Z,11.93
2023-11-18T23:53:33.704Z,11.90
2023-11-18T23:56:02.480Z,11.02
2023-11-18T23:58:35.016Z,10.45
